createdAt,value
2022-10-07T00:04:02.163Z,12.36
2022-10-07T00:09:03.518Z,12.23
2022-10-07T00:14:09.219Z,12.15
2022-10-07T00:19:13.105Z,12.12
2022-10-07T00:24:15.881Z,12.12
2022-10-07T00:29:17.129Z,12.12
2022-10-07T00:34:18.418Z,12.10
2022-10-07T00:39:19.690Z,12.06
2022-10-07T00:44:33.920Z,11.99
2022-10-07T00:49:42.030Z,11.99
2022-10-07T00:54:44.071Z,12.00
2022-10-07T00:59:45.405Z,11.95
2022-10-07T01:04:48.582Z,11.90
2022-10-07T01:09:52.325Z,11.90
2022-10-07T01:15:08.141Z,11.83
2022-10-07T01:20:25.303Z,11.76
2022-10-07T01:25:44.742Z,11.65
2022-10-07T01:30:52.848Z,11.63
2022-10-07T01:35:57.308Z,11.59
2022-10-07T01:41:08.455Z,11.62
2022-10-07T01:46:15.859Z,11.55
2022-10-07T01:51:18.972Z,11.40
2022-10-07T01:56:38.970Z,11.47
2022-10-07T02:01:53.480Z,11.62
2022-10-07T02:07:03.833Z,11.44
2022-10-07T02:12:40.935Z,11.27
2022-10-07T02:17:49.755Z,11.26
2022-10-07T02:22:53.442Z,11.31
2022-10-07T02:27:55.709Z,11.31
2022-10-07T02:33:03.729Z,11.15
2022-10-07T02:38:10.810Z,11.28
2022-10-07T02:43:36.155Z,11.22
2022-10-07T02:48:42.830Z,11.41
2022-10-07T02:53:49.160Z,11.51
2022-10-07T02:58:51.155Z,11.49
2022-10-07T03:03:52.431Z,11.43
2022-10-07T03:08:53.769Z,11.17
2022-10-07T03:13:55.066Z,11.32
2022-10-07T03:18:56.304Z,11.17
2022-10-07T03:23:58.297Z,11.38
2022-10-07T03:29:00.476Z,11.22
2022-10-07T03:34:02.141Z,11.24
2022-10-07T03:39:03.846Z,10.98
2022-10-07T03:44:05.532Z,10.95
2022-10-07T03:49:06.878Z,10.90
2022-10-07T03:54:08.255Z,11.02
2022-10-07T03:59:09.512Z,10.98
2022-10-07T04:04:11.789Z,10.95
2022-10-07T04:09:13.891Z,10.96
2022-10-07T04:14:16.807Z,10.93
2022-10-07T04:19:18.044Z,10.90
2022-10-07T04:24:19.291Z,10.83
2022-10-07T04:29:20.536Z,10.79
2022-10-07T04:34:22.450Z,10.90
2022-10-07T04:39:42.736Z,11.00
2022-10-07T04:44:44.227Z,10.96
2022-10-07T04:49:45.450Z,10.81
2022-10-07T04:54:46.945Z,11.07
2022-10-07T04:59:48.215Z,11.04
2022-10-07T05:04:49.479Z,10.88
2022-10-07T05:09:51.137Z,10.94
2022-10-07T05:14:52.470Z,10.90
2022-10-07T05:19:54.875Z,10.83
2022-10-07T05:24:56.104Z,10.88
2022-10-07T05:29:57.394Z,10.90
2022-10-07T05:34:58.872Z,11.08
2022-10-07T05:40:00.147Z,11.03
2022-10-07T05:45:02.137Z,11.15
2022-10-07T05:50:03.684Z,11.08
2022-10-07T05:55:05.366Z,11.04
2022-10-07T06:00:07.999Z,11.03
2022-10-07T06:05:09.968Z,11.09
2022-10-07T06:10:29.991Z,11.07
2022-10-07T06:15:31.482Z,11.18
2022-10-07T06:20:32.762Z,11.18
2022-10-07T06:25:34.481Z,11.55
2022-10-07T06:30:37.698Z,11.53
2022-10-07T06:35:39.027Z,11.64
2022-10-07T06:40:40.384Z,11.65
2022-10-07T06:45:43.101Z,11.71
2022-10-07T06:50:54.820Z,11.72
2022-10-07T06:55:57.864Z,11.99
2022-10-07T07:00:59.719Z,12.35
2022-10-07T07:06:02.317Z,12.61
2022-10-07T07:11:30.468Z,12.64
2022-10-07T07:16:32.458Z,12.53
2022-10-07T07:21:35.174Z,12.66
2022-10-07T07:26:39.322Z,12.84
2022-10-07T07:31:40.737Z,13.05
2022-10-07T07:36:48.934Z,13.22
2022-10-07T07:41:50.809Z,13.46
2022-10-07T07:46:52.247Z,13.71
2022-10-07T07:51:53.563Z,13.86
2022-10-07T07:56:56.221Z,14.09
2022-10-07T08:01:57.928Z,14.28
2022-10-07T08:06:59.220Z,14.48
2022-10-07T08:12:01.083Z,14.71
2022-10-07T08:17:02.354Z,14.98
2022-10-07T08:22:04.188Z,15.27
2022-10-07T08:27:05.451Z,15.43
2022-10-07T08:32:06.821Z,15.71
2022-10-07T08:37:08.081Z,15.93
2022-10-07T08:42:16.606Z,16.26
2022-10-07T08:47:36.649Z,16.67
2022-10-07T08:52:38.894Z,16.98
2022-10-07T08:58:05.430Z,17.32
2022-10-07T09:03:18.512Z,17.59
2022-10-07T09:08:30.257Z,17.98
2022-10-07T09:13:37.504Z,18.51
2022-10-07T09:18:42.534Z,19.00
2022-10-07T09:23:45.490Z,19.03
2022-10-07T09:28:46.786Z,19.37
2022-10-07T09:33:52.867Z,19.81
2022-10-07T09:38:54.174Z,20.23
2022-10-07T09:44:15.643Z,21.11
2022-10-07T09:49:29.104Z,22.42
2022-10-07T09:54:33.596Z,25.94
2022-10-07T09:59:36.438Z,28.26
2022-10-07T10:04:46.278Z,29.08
2022-10-07T10:09:53.125Z,28.13
2022-10-07T10:14:58.976Z,27.21
2022-10-07T10:20:39.374Z,27.29
2022-10-07T10:26:31.039Z,28.78
2022-10-07T10:32:02.178Z,32.15
2022-10-07T10:37:29.506Z,33.40
2022-10-07T10:42:49.218Z,33.17
2022-10-07T10:48:05.553Z,35.32
2022-10-07T10:53:24.083Z,36.98
2022-10-07T10:58:33.186Z,36.56
2022-10-07T11:04:05.447Z,37.12
2022-10-07T11:09:16.135Z,38.74
2022-10-07T11:14:22.574Z,40.08
2022-10-07T11:19:28.324Z,40.62
2022-10-07T11:24:36.713Z,41.07
2022-10-07T11:30:01.343Z,39.84
2022-10-07T11:35:21.539Z,39.05
2022-10-07T11:40:28.903Z,38.25
2022-10-07T11:45:37.285Z,37.04
2022-10-07T11:50:44.449Z,35.90
2022-10-07T11:55:56.748Z,34.83
2022-10-07T12:01:26.158Z,35.73
2022-10-07T12:06:28.338Z,35.50
2022-10-07T12:11:32.478Z,34.68
2022-10-07T12:16:33.739Z,35.83
2022-10-07T12:21:59.230Z,37.36
2022-10-07T12:27:17.157Z,37.95
2022-10-07T12:32:44.040Z,38.76
2022-10-07T12:37:46.351Z,40.46
2022-10-07T12:42:56.292Z,39.54
2022-10-07T12:48:00.508Z,41.72
2022-10-07T12:53:03.462Z,42.89
2022-10-07T12:59:07.130Z,44.17
2022-10-07T13:04:36.180Z,43.40
2022-10-07T13:10:03.112Z,43.74
2022-10-07T13:15:41.327Z,40.61
2022-10-07T13:20:45.620Z,42.12
2022-10-07T13:25:56.048Z,42.42
2022-10-07T13:31:12.159Z,40.06
2022-10-07T13:36:30.418Z,39.62
2022-10-07T13:41:31.853Z,37.70
2022-10-07T13:46:35.536Z,37.88
2022-10-07T13:51:40.690Z,37.86
2022-10-07T13:56:42.813Z,38.05
2022-10-07T14:01:48.828Z,37.80
2022-10-07T14:07:17.206Z,36.72
2022-10-07T14:12:22.189Z,37.13
2022-10-07T14:17:32.988Z,37.47
2022-10-07T14:22:41.892Z,35.58
2022-10-07T14:27:47.126Z,33.02
2022-10-07T14:33:16.701Z,29.29
2022-10-07T14:38:19.802Z,27.31
2022-10-07T14:43:21.088Z,26.25
2022-10-07T14:48:22.351Z,24.99
2022-10-07T14:53:23.902Z,24.17
2022-10-07T14:58:25.206Z,23.80
2022-10-07T15:03:26.490Z,23.23
2022-10-07T15:08:27.862Z,22.94
2022-10-07T15:13:29.200Z,22.48
2022-10-07T15:18:30.503Z,22.23
2022-10-07T15:23:31.744Z,21.60
2022-10-07T15:28:33.688Z,21.44
2022-10-07T15:33:36.485Z,21.50
2022-10-07T15:38:37.935Z,21.51
2022-10-07T15:43:39.241Z,21.25
2022-10-07T15:48:40.472Z,21.12
2022-10-07T15:53:41.719Z,20.90
2022-10-07T15:58:44.150Z,20.91
2022-10-07T16:03:48.561Z,20.81
2022-10-07T16:08:54.892Z,20.62
2022-10-07T16:13:56.140Z,20.48
2022-10-07T16:18:58.824Z,20.27
2022-10-07T16:24:12.402Z,20.05
2022-10-07T16:29:35.066Z,19.96
2022-10-07T16:34:38.033Z,19.80
2022-10-07T16:39:39.379Z,19.73
2022-10-07T16:44:40.655Z,19.60
2022-10-07T16:49:42.237Z,19.43
2022-10-07T16:54:43.865Z,19.33
2022-10-07T16:59:45.256Z,19.29
2022-10-07T17:04:46.565Z,19.16
2022-10-07T17:09:48.301Z,19.07
2022-10-07T17:14:49.616Z,18.99
2022-10-07T17:19:51.407Z,18.92
2022-10-07T17:24:52.733Z,18.93
2022-10-07T17:29:55.349Z,18.93
2022-10-07T17:34:56.579Z,18.80
2022-10-07T17:39:57.917Z,18.71
2022-10-07T17:45:00.268Z,18.64
2022-10-07T17:50:01.558Z,18.51
2022-10-07T17:55:04.097Z,18.35
2022-10-07T18:00:06.850Z,18.38
2022-10-07T18:05:08.335Z,18.31
2022-10-07T18:10:09.742Z,18.26
2022-10-07T18:15:20.373Z,18.17
2022-10-07T18:20:22.982Z,18.12
2022-10-07T18:25:24.673Z,18.07
2022-10-07T18:30:25.913Z,18.00
2022-10-07T18:35:27.157Z,17.99
2022-10-07T18:40:28.483Z,17.90
2022-10-07T18:45:29.789Z,17.83
2022-10-07T18:50:33.575Z,17.72
2022-10-07T18:55:38.989Z,17.69
2022-10-07T19:00:43.808Z,17.85
2022-10-07T19:05:46.226Z,17.87
2022-10-07T19:10:47.939Z,17.91
2022-10-07T19:15:49.261Z,17.85
2022-10-07T19:20:58.258Z,17.91
2022-10-07T19:26:01.615Z,17.86
2022-10-07T19:31:13.687Z,17.83
2022-10-07T19:36:14.998Z,17.80
2022-10-07T19:41:16.958Z,17.65
2022-10-07T19:46:20.331Z,17.74
2022-10-07T19:51:21.669Z,17.72
2022-10-07T19:56:24.329Z,17.55
2022-10-07T20:01:28.266Z,17.59
2022-10-07T20:06:29.884Z,17.43
2022-10-07T20:11:31.262Z,17.31
2022-10-07T20:16:33.751Z,17.31
2022-10-07T20:21:37.729Z,17.28
2022-10-07T20:26:38.948Z,17.25
2022-10-07T20:31:41.392Z,17.21
2022-10-07T20:36:43.497Z,17.08
2022-10-07T20:42:03.551Z,17.06
2022-10-07T20:47:06.641Z,16.86
2022-10-07T20:52:13.863Z,16.86
2022-10-07T20:57:17.560Z,16.80
2022-10-07T21:02:22.058Z,16.81
2022-10-07T21:07:23.361Z,16.83
2022-10-07T21:12:24.692Z,16.79
2022-10-07T21:17:26.170Z,16.69
2022-10-07T21:22:28.194Z,16.69
2022-10-07T21:27:30.122Z,16.67
2022-10-07T21:32:31.345Z,16.57
2022-10-07T21:37:32.594Z,16.57
2022-10-07T21:42:33.854Z,16.48
2022-10-07T21:47:35.197Z,16.41
2022-10-07T21:52:36.614Z,16.32
2022-10-07T21:57:38.003Z,16.34
2022-10-07T22:02:39.377Z,16.20
2022-10-07T22:07:59.170Z,16.25
2022-10-07T22:13:00.548Z,16.07
2022-10-07T22:18:03.229Z,16.04
2022-10-07T22:23:04.493Z,15.95
2022-10-07T22:28:05.803Z,15.96
2022-10-07T22:33:07.175Z,15.83
2022-10-07T22:38:08.573Z,15.76
2022-10-07T22:43:09.841Z,15.78
2022-10-07T22:48:11.097Z,15.92
2022-10-07T22:53:12.360Z,15.95
2022-10-07T22:58:13.844Z,15.95
2022-10-07T23:03:15.592Z,15.95
2022-10-07T23:08:16.890Z,15.90
2022-10-07T23:13:18.153Z,15.88
2022-10-07T23:18:19.415Z,15.87
2022-10-07T23:23:20.671Z,15.65
2022-10-07T23:28:25.508Z,15.66
2022-10-07T23:33:26.853Z,15.51
2022-10-07T23:38:28.470Z,15.40
2022-10-07T23:43:33.274Z,15.49
2022-10-07T23:48:35.174Z,15.45
2022-10-07T23:53:36.441Z,15.55
2022-10-07T23:58:38.158Z,15.56
